| time (UTC) | temp F | wind direction | speed knots | gust knots | rain 1hr in | rain 24hr in | rain mn in | humidity % | barometer mb |
| 20260507153104 | 58 | 63 | 3.5 | 5.2 | 0.00 | 0.28 | 0.03 | 59 | 1007.4 |
| 20260507152104 | 57 | 246 | 0.0 | 3.5 | 0.00 | 0.28 | 0.03 | 61 | 1007.6 |
| 20260507151104 | 58 | 325 | 0.0 | 2.6 | 0.00 | 0.28 | 0.03 | 63 | 1007.5 |
| 20260507145104 | 57 | 236 | 1.7 | 4.3 | 0.00 | 0.28 | 0.03 | 66 | 1007.8 |
| 20260507144104 | 57 | 324 | 0.0 | 0.0 | 0.00 | 0.28 | 0.03 | 67 | 1007.8 |
| 20260507143104 | 56 | 331 | 0.0 | 0.9 | 0.00 | 0.28 | 0.03 | 67 | 1007.8 |
| 20260507142105 | 56 | 230 | 0.0 | 4.3 | 0.01 | 0.28 | 0.03 | 67 | 1007.7 |
| 20260507141104 | 56 | 225 | 0.9 | 4.3 | 0.01 | 0.28 | 0.03 | 65 | 1007.5 |
| 20260507134104 | 57 | 345 | 0.0 | 2.6 | 0.01 | 0.28 | 0.03 | 67 | 1007.6 |
| 20260507133104 | 56 | 38 | 0.0 | 8.7 | 0.01 | 0.28 | 0.03 | 70 | 1007.7 |
| 20260507132104 | 55 | 17 | 0.0 | 3.5 | 0.00 | 0.27 | 0.02 | 70 | 1007.8 |
| 20260507131104 | 54 | 360 | 0.9 | 3.5 | 0.00 | 0.27 | 0.02 | 74 | 1007.9 |
| 20260507130104 | 53 | 38 | 0.0 | 3.5 | 0.00 | 0.27 | 0.02 | 79 | 1008.0 |
| 20260507125104 | 52 | 261 | 0.0 | 0.9 | 0.00 | 0.27 | 0.02 | 80 | 1008.0 |
| 20260507124104 | 51 | 38 | 0.0 | 6.1 | 0.00 | 0.27 | 0.02 | 81 | 1008.1 |
| 20260507122104 | 50 | 5 | 0.0 | 0.0 | 0.00 | 0.27 | 0.02 | 88 | 1008.3 |
| 20260507120104 | 48 | 5 | 0.0 | 1.7 | 0.00 | 0.27 | 0.02 | 90 | 1008.2 |
| 20260507115104 | 48 | 5 | 0.0 | 0.0 | 0.00 | 0.27 | 0.02 | 91 | 1008.1 |
| 20260507114104 | 48 | 5 | 0.0 | 2.6 | 0.00 | 0.27 | 0.02 | 91 | 1008.1 |
| 20260507113104 | 48 | 5 | 0.0 | 0.0 | 0.00 | 0.27 | 0.02 | 92 | 1008.2 |
| 20260507112104 | 47 | 5 | 0.0 | 0.0 | 0.00 | 0.27 | 0.02 | 93 | 1008.0 |
| 20260507111104 | 47 | 5 | 0.0 | 0.0 | 0.00 | 0.27 | 0.02 | 93 | 1008.0 |
| 20260507110104 | 47 | 5 | 0.0 | 0.0 | 0.00 | 0.27 | 0.02 | 93 | 1007.9 |
| 20260507105104 | 47 | 5 | 0.0 | 0.0 | 0.00 | 0.27 | 0.02 | 93 | 1007.9 |
| 20260507104104 | 47 | 5 | 0.0 | 0.0 | 0.00 | 0.27 | 0.02 | 93 | 1007.6 |
| 20260507102103 | 47 | 5 | 0.0 | 0.0 | 0.00 | 0.27 | 0.02 | 94 | 1007.5 |
| 20260507101104 | 47 | 5 | 0.0 | 0.0 | 0.00 | 0.27 | 0.02 | 94 | 1007.4 |
| 20260507100104 | 47 | 5 | 0.0 | 0.0 | 0.00 | 0.27 | 0.02 | 94 | 1007.3 |
| 20260507095104 | 47 | 5 | 0.0 | 3.5 | 0.00 | 0.27 | 0.02 | 94 | 1007.4 |
| 20260507094104 | 47 | 5 | 0.0 | 1.7 | 0.00 | 0.27 | 0.02 | 95 | 1007.7 |
| 20260507092103 | 47 | 5 | 0.0 | 0.0 | 0.00 | 0.27 | 0.02 | 95 | 1007.6 |
| 20260507091103 | 47 | 5 | 0.0 | 0.0 | 0.00 | 0.27 | 0.02 | 95 | 1007.7 |
| 20260507090103 | 47 | 5 | 0.0 | 0.0 | 0.00 | 0.27 | 0.02 | 94 | 1007.8 |
| 20260507085103 | 47 | 5 | 0.0 | 0.0 | 0.01 | 0.27 | 0.02 | 94 | 1007.5 |
| 20260507084103 | 48 | 5 | 0.0 | 0.0 | 0.01 | 0.27 | 0.02 | 94 | 1007.8 |
| 20260507083104 | 48 | 5 | 0.0 | 0.0 | 0.01 | 0.27 | 0.02 | 94 | 1007.4 |
| 20260507082103 | 48 | 5 | 0.0 | 0.0 | 0.01 | 0.27 | 0.02 | 94 | 1007.3 |
| 20260507081103 | 48 | 5 | 0.0 | 0.9 | 0.01 | 0.27 | 0.02 | 94 | 1007.3 |
| 20260507080103 | 49 | 5 | 0.0 | 2.6 | 0.01 | 0.27 | 0.02 | 93 | 1007.0 |
| 20260507075103 | 49 | 28 | 0.0 | 1.7 | 0.00 | 0.26 | 0.01 | 94 | 1007.2 |
| 20260507074103 | 49 | 21 | 0.0 | 0.0 | 0.00 | 0.26 | 0.01 | 94 | 1007.3 |
| 20260507072103 | 49 | 32 | 0.0 | 0.0 | 0.00 | 0.26 | 0.01 | 95 | 1006.7 |
| 20260507071103 | 49 | 32 | 0.0 | 2.6 | 0.00 | 0.26 | 0.01 | 95 | 1006.6 |
| 20260507064103 | 50 | 15 | 0.0 | 0.0 | 0.00 | 0.26 | 0.01 | 95 | 1006.5 |
| 20260507062103 | 50 | 15 | 0.0 | 0.0 | 0.00 | 0.26 | 0.01 | 95 | 1006.5 |
| 20260507061103 | 50 | 14 | 0.0 | 0.0 | 0.00 | 0.26 | 0.01 | 95 | 1006.6 |
| 20260507055103 | 50 | 47 | 0.0 | 0.0 | 0.00 | 0.26 | 0.01 | 96 | 1006.6 |
| 20260507054103 | 51 | 47 | 0.0 | 0.9 | 0.00 | 0.26 | 0.01 | 96 | 1007.0 |
| 20260507053103 | 51 | 47 | 0.0 | 0.0 | 0.00 | 0.26 | 0.01 | 96 | 1007.1 |
| 20260507052103 | 51 | 47 | 0.0 | 3.5 | 0.00 | 0.26 | 0.01 | 96 | 1007.0 |
| 20260507051103 | 51 | 39 | 0.0 | 0.0 | 0.00 | 0.26 | 0.01 | 96 | 1007.0 |
| 20260507045103 | 52 | 89 | 0.0 | 0.0 | 0.02 | 0.26 | 0.01 | 96 | 1006.8 |
| 20260507044103 | 52 | 89 | 0.0 | 0.0 | 0.04 | 0.26 | 0.01 | 96 | 1006.8 |
| 20260507043103 | 53 | 142 | 0.0 | 4.3 | 0.04 | 0.26 | 0.01 | 96 | 1006.8 |
| 20260507042103 | 54 | 9 | 0.0 | 3.5 | 0.04 | 0.26 | 0.01 | 96 | 1006.7 |
| 20260507041103 | 54 | 334 | 0.0 | 0.0 | 0.04 | 0.26 | 0.01 | 96 | 1006.9 |
| 20260507035103 | 55 | 334 | 0.0 | 0.0 | 0.02 | 0.24 | 0.24 | 96 | 1006.7 |
| 20260507034103 | 55 | 334 | 0.0 | 0.9 | 0.00 | 0.22 | 0.22 | 96 | 1006.5 |
| 20260507033103 | 56 | 334 | 0.9 | 2.6 | 0.00 | 0.22 | 0.22 | 96 | 1006.2 |
| 20260507032103 | 57 | 305 | 0.0 | 5.2 | 0.00 | 0.22 | 0.22 | 96 | 1006.0 |
| 20260507031103 | 58 | 360 | 0.0 | 2.6 | 0.00 | 0.22 | 0.22 | 97 | 1005.8 |
| 20260507025103 | 59 | 190 | 0.0 | 0.0 | 0.00 | 0.22 | 0.22 | 96 | 1005.9 |
| 20260507024103 | 59 | 190 | 0.0 | 0.0 | 0.00 | 0.22 | 0.22 | 96 | 1005.8 |
| 20260507023103 | 59 | 190 | 0.0 | 0.0 | 0.00 | 0.22 | 0.22 | 96 | 1005.8 |
| 20260507021103 | 58 | 190 | 0.0 | 0.0 | 0.00 | 0.22 | 0.22 | 96 | 1005.4 |
| 20260507015102 | 58 | 190 | 0.0 | 0.0 | 0.00 | 0.22 | 0.22 | 96 | 1005.4 |
| 20260507014102 | 58 | 190 | 0.0 | 1.7 | 0.00 | 0.22 | 0.22 | 96 | 1005.4 |
| 20260507013102 | 58 | 191 | 0.9 | 3.5 | 0.00 | 0.22 | 0.22 | 96 | 1005.5 |
| 20260507012102 | 58 | 188 | 0.9 | 1.7 | 0.00 | 0.22 | 0.22 | 96 | 1005.5 |
| 20260507005102 | 58 | 198 | 0.0 | 3.5 | 0.00 | 0.22 | 0.22 | 96 | 1005.5 |
| 20260507003102 | 58 | 197 | 0.0 | 0.9 | 0.00 | 0.22 | 0.22 | 96 | 1005.4 |
| 20260507002102 | 59 | 196 | 0.0 | 2.6 | 0.00 | 0.22 | 0.22 | 96 | 1005.3 |
| 20260507001102 | 59 | 199 | 0.0 | 2.6 | 0.01 | 0.22 | 0.22 | 96 | 1005.3 |
| 20260506234102 | 59 | 182 | 0.0 | 3.5 | 0.07 | 0.22 | 0.22 | 96 | 1005.1 |
| 20260506233102 | 59 | 163 | 1.7 | 2.6 | 0.08 | 0.22 | 0.22 | 96 | 1005.1 |
| 20260506232102 | 59 | 164 | 0.0 | 4.3 | 0.09 | 0.22 | 0.22 | 96 | 1005.1 |
| 20260506231102 | 59 | 130 | 0.0 | 2.6 | 0.09 | 0.21 | 0.21 | 96 | 1005.2 |
| 20260506225102 | 59 | 187 | 0.0 | 4.3 | 0.06 | 0.16 | 0.16 | 96 | 1005.5 |
| 20260506224102 | 59 | 188 | 0.0 | 2.6 | 0.06 | 0.15 | 0.15 | 95 | 1005.5 |
| 20260506223102 | 59 | 186 | 0.0 | 3.5 | 0.05 | 0.14 | 0.14 | 95 | 1005.3 |
| 20260506222102 | 59 | 168 | 0.0 | 0.0 | 0.04 | 0.13 | 0.13 | 95 | 1005.5 |
| 20260506221102 | 59 | 172 | 0.0 | 3.5 | 0.03 | 0.12 | 0.12 | 95 | 1005.5 |
| 20260506215102 | 59 | 185 | 0.9 | 3.5 | 0.02 | 0.10 | 0.10 | 95 | 1005.6 |
| 20260506214102 | 59 | 162 | 2.6 | 3.5 | 0.01 | 0.09 | 0.09 | 95 | 1005.6 |
| 20260506213102 | 59 | 211 | 0.0 | 2.6 | 0.02 | 0.09 | 0.09 | 95 | 1005.6 |
| 20260506212102 | 60 | 146 | 0.0 | 2.6 | 0.03 | 0.09 | 0.09 | 95 | 1005.7 |
| 20260506205102 | 60 | 199 | 0.0 | 4.3 | 0.04 | 0.08 | 0.08 | 94 | 1006.1 |
| 20260506204101 | 61 | 246 | 0.0 | 5.2 | 0.04 | 0.08 | 0.08 | 94 | 1006.3 |
| 20260506203102 | 61 | 199 | 0.0 | 3.5 | 0.03 | 0.07 | 0.07 | 93 | 1006.3 |
| 20260506202102 | 61 | 229 | 1.7 | 5.2 | 0.02 | 0.06 | 0.06 | 92 | 1006.3 |
| 20260506201102 | 62 | 127 | 0.9 | 5.2 | 0.02 | 0.06 | 0.06 | 91 | 1006.1 |
| 20260506194102 | 62 | 198 | 0.0 | 3.5 | 0.03 | 0.04 | 0.04 | 90 | 1006.4 |
| 20260506193101 | 63 | 215 | 0.0 | 4.3 | 0.04 | 0.04 | 0.04 | 90 | 1006.3 |
| 20260506192102 | 63 | 217 | 3.5 | 4.3 | 0.04 | 0.04 | 0.04 | 89 | 1006.4 |
| 20260506184101 | 66 | 207 | 0.0 | 2.6 | 0.01 | 0.01 | 0.01 | 81 | 1006.6 |
| 20260506182101 | 68 | 193 | 0.0 | 6.1 | 0.00 | 0.00 | 0.00 | 72 | 1006.7 |
| 20260506175101 | 71 | 190 | 4.3 | 6.1 | 0.00 | 0.00 | 0.00 | 63 | 1006.8 |
| 20260506174101 | 71 | 231 | 3.5 | 6.1 | 0.00 | 0.00 | 0.00 | 61 | 1006.6 |
| 20260506173101 | 72 | 193 | 2.6 | 7.0 | 0.00 | 0.00 | 0.00 | 61 | 1006.6 |
| 20260506172101 | 73 | 131 | 3.5 | 8.7 | 0.00 | 0.00 | 0.00 | 60 | 1006.3 |
| 20260506171101 | 73 | 129 | 1.7 | 5.2 | 0.00 | 0.00 | 0.00 | 60 | 1006.5 |
| 20260506165101 | 72 | 240 | 0.0 | 6.1 | 0.00 | 0.00 | 0.00 | 63 | 1007.0 |
| 20260506164101 | 71 | 178 | 0.9 | 6.1 | 0.00 | 0.00 | 0.00 | 63 | 1007.0 |
| 20260506161101 | 70 | 212 | 0.0 | 3.5 | 0.00 | 0.00 | 0.00 | 66 | 1007.6 |
| 20260506160101 | 70 | 260 | 0.0 | 5.2 | 0.00 | 0.00 | 0.00 | 67 | 1007.9 |
| 20260506155101 | 70 | 187 | 0.0 | 4.3 | 0.00 | 0.00 | 0.00 | 67 | 1008.1 |